Terminal Aerodrome Forecast
Issued by NWS Omaha/Valley, NE

Home | Current Version | Previous Version | Text Only | Print | Product List | Glossary On
Versions: 1 2 3 4 5 6 7 8 9 10 11 12 13 14 15 16 17 18 19 20 21 22 23 24 25 26 27 28 29 30
000
FTUS43 KOAX 231414 AAA
TAFLNK
TAF AMD
KLNK 231414Z 2314/2412 14009KT 6SM BR OVC009
     FM240600 13012KT 4SM -SHRA BR OVC015
     FM240900 12009KT 6SM -DZ BR OVC007=

USA.gov is the U.S. government's official web portal to all federal, state and local government web resources and services.